sensor_id;sensor_type;location;lat;lon;timestamp;pressure;altitude;pressure_sealevel;temperature;humidity
9462;BME280;4769;42.660;23.262;2023-07-30T00:00:56;93857.78;;;24.34;56.63
9462;BME280;4769;42.660;23.262;2023-07-30T00:03:22;93853.25;;;24.26;57.72
9462;BME280;4769;42.660;23.262;2023-07-30T00:05:56;93854.59;;;23.99;58.15
9462;BME280;4769;42.660;23.262;2023-07-30T00:08:23;93854.94;;;23.89;58.07
9462;BME280;4769;42.660;23.262;2023-07-30T00:10:49;93858.38;;;23.98;57.16
9462;BME280;4769;42.660;23.262;2023-07-30T00:13:14;93850.66;;;23.88;57.72
9462;BME280;4769;42.660;23.262;2023-07-30T00:15:40;93855.47;;;23.83;58.11
9462;BME280;4769;42.660;23.262;2023-07-30T00:18:06;93845.63;;;23.87;57.77
9462;BME280;4769;42.660;23.262;2023-07-30T00:20:34;93842.22;;;23.77;58.43
9462;BME280;4769;42.660;23.262;2023-07-30T00:23:02;93856.72;;;23.85;59.21
9462;BME280;4769;42.660;23.262;2023-07-30T00:25:28;93857.50;;;23.85;59.21
9462;BME280;4769;42.660;23.262;2023-07-30T00:27:53;93847.69;;;23.90;58.09
9462;BME280;4769;42.660;23.262;2023-07-30T00:30:19;93840.19;;;23.95;57.41
9462;BME280;4769;42.660;23.262;2023-07-30T00:32:45;93835.47;;;23.92;56.72
9462;BME280;4769;42.660;23.262;2023-07-30T00:35:10;93836.75;;;23.86;56.92
9462;BME280;4769;42.660;23.262;2023-07-30T00:37:36;93838.47;;;23.91;56.88
9462;BME280;4769;42.660;23.262;2023-07-30T00:40:06;93831.69;;;23.84;56.90
9462;BME280;4769;42.660;23.262;2023-07-30T00:42:32;93825.72;;;24.00;56.25
9462;BME280;4769;42.660;23.262;2023-07-30T00:44:57;93830.88;;;23.93;56.72
9462;BME280;4769;42.660;23.262;2023-07-30T00:47:23;93826.19;;;23.81;56.71
9462;BME280;4769;42.660;23.262;2023-07-30T00:49:49;93826.06;;;23.77;57.43
9462;BME280;4769;42.660;23.262;2023-07-30T00:52:16;93840.47;;;23.52;58.43
9462;BME280;4769;42.660;23.262;2023-07-30T00:54:42;93841.16;;;23.41;59.15
9462;BME280;4769;42.660;23.262;2023-07-30T00:57:11;93845.44;;;23.42;59.54
9462;BME280;4769;42.660;23.262;2023-07-30T00:59:37;93829.16;;;23.38;59.22
9462;BME280;4769;42.660;23.262;2023-07-30T01:02:03;93831.09;;;23.29;59.21
9462;BME280;4769;42.660;23.262;2023-07-30T01:04:29;93834.13;;;23.28;58.97
9462;BME280;4769;42.660;23.262;2023-07-30T01:06:55;93839.59;;;23.40;58.05
9462;BME280;4769;42.660;23.262;2023-07-30T01:09:21;93849.84;;;23.46;58.18
9462;BME280;4769;42.660;23.262;2023-07-30T01:11:48;93841.13;;;23.49;58.10
9462;BME280;4769;42.660;23.262;2023-07-30T01:14:18;93850.22;;;23.36;59.01
9462;BME280;4769;42.660;23.262;2023-07-30T01:16:45;93842.84;;;23.16;59.94
9462;BME280;4769;42.660;23.262;2023-07-30T01:19:11;93850.59;;;23.26;59.35
9462;BME280;4769;42.660;23.262;2023-07-30T01:21:39;93846.88;;;23.39;58.97
9462;BME280;4769;42.660;23.262;2023-07-30T01:24:05;93845.03;;;23.31;58.87
9462;BME280;4769;42.660;23.262;2023-07-30T01:26:40;93844.97;;;23.02;60.34
9462;BME280;4769;42.660;23.262;2023-07-30T01:29:12;93842.00;;;22.95;60.95
9462;BME280;4769;42.660;23.262;2023-07-30T01:31:40;93845.47;;;23.04;60.91
9462;BME280;4769;42.660;23.262;2023-07-30T01:34:07;93838.34;;;23.00;61.08
9462;BME280;4769;42.660;23.262;2023-07-30T01:36:35;93843.09;;;23.03;60.95
9462;BME280;4769;42.660;23.262;2023-07-30T01:39:05;93851.78;;;23.08;60.51
9462;BME280;4769;42.660;23.262;2023-07-30T01:41:32;93842.66;;;22.92;61.24
9462;BME280;4769;42.660;23.262;2023-07-30T01:43:57;93853.56;;;22.96;61.07
9462;BME280;4769;42.660;23.262;2023-07-30T01:46:23;93850.75;;;22.84;60.79
9462;BME280;4769;42.660;23.262;2023-07-30T01:48:49;93840.72;;;22.64;61.44
9462;BME280;4769;42.660;23.262;2023-07-30T01:51:14;93849.09;;;22.62;62.22
9462;BME280;4769;42.660;23.262;2023-07-30T01:53:40;93856.97;;;22.67;62.89
9462;BME280;4769;42.660;23.262;2023-07-30T01:56:08;93856.75;;;22.81;63.08
9462;BME280;4769;42.660;23.262;2023-07-30T01:58:34;93859.13;;;22.82;63.19
9462;BME280;4769;42.660;23.262;2023-07-30T02:01:00;93862.31;;;22.76;63.10
9462;BME280;4769;42.660;23.262;2023-07-30T02:03:25;93862.03;;;22.60;63.56
9462;BME280;4769;42.660;23.262;2023-07-30T02:05:51;93856.34;;;22.62;62.58
9462;BME280;4769;42.660;23.262;2023-07-30T02:08:17;93859.34;;;22.60;62.64
9462;BME280;4769;42.660;23.262;2023-07-30T02:10:42;93859.22;;;22.57;61.99
9462;BME280;4769;42.660;23.262;2023-07-30T02:13:11;93845.94;;;22.43;62.17
9462;BME280;4769;42.660;23.262;2023-07-30T02:15:40;93848.34;;;22.45;62.39
9462;BME280;4769;42.660;23.262;2023-07-30T02:18:05;93857.34;;;22.32;63.38
9462;BME280;4769;42.660;23.262;2023-07-30T02:20:32;93853.56;;;22.50;63.24
9462;BME280;4769;42.660;23.262;2023-07-30T02:22:58;93862.56;;;22.54;63.44
9462;BME280;4769;42.660;23.262;2023-07-30T02:25:24;93855.13;;;22.42;63.65
9462;BME280;4769;42.660;23.262;2023-07-30T02:27:49;93853.88;;;22.48;63.65
9462;BME280;4769;42.660;23.262;2023-07-30T02:30:18;93861.44;;;22.55;64.19
9462;BME280;4769;42.660;23.262;2023-07-30T02:32:43;93862.38;;;22.42;64.06
9462;BME280;4769;42.660;23.262;2023-07-30T02:35:09;93871.41;;;22.29;65.00
9462;BME280;4769;42.660;23.262;2023-07-30T02:37:35;93868.25;;;22.27;65.19
9462;BME280;4769;42.660;23.262;2023-07-30T02:40:00;93870.44;;;22.42;64.41
9462;BME280;4769;42.660;23.262;2023-07-30T02:42:26;93871.41;;;22.20;65.45
9462;BME280;4769;42.660;23.262;2023-07-30T02:44:52;93876.00;;;22.11;65.94
9462;BME280;4769;42.660;23.262;2023-07-30T02:47:20;93868.41;;;22.13;65.46
9462;BME280;4769;42.660;23.262;2023-07-30T02:49:46;93864.31;;;22.16;65.77
9462;BME280;4769;42.660;23.262;2023-07-30T02:52:12;93870.00;;;22.23;65.77
9462;BME280;4769;42.660;23.262;2023-07-30T02:54:37;93868.25;;;22.10;66.07
9462;BME280;4769;42.660;23.262;2023-07-30T02:57:04;93862.72;;;22.15;65.48
9462;BME280;4769;42.660;23.262;2023-07-30T02:59:29;93878.84;;;22.06;66.08
9462;BME280;4769;42.660;23.262;2023-07-30T03:01:55;93873.47;;;21.89;66.97
9462;BME280;4769;42.660;23.262;2023-07-30T03:04:23;93871.25;;;21.74;67.29
9462;BME280;4769;42.660;23.262;2023-07-30T03:06:49;93868.81;;;21.47;68.88
9462;BME280;4769;42.660;23.262;2023-07-30T03:09:15;93885.25;;;21.63;68.67
9462;BME280;4769;42.660;23.262;2023-07-30T03:11:40;93875.00;;;21.65;68.64
9462;BME280;4769;42.660;23.262;2023-07-30T03:14:06;93872.34;;;21.90;67.14
9462;BME280;4769;42.660;23.262;2023-07-30T03:16:32;93879.63;;;21.98;66.63
9462;BME280;4769;42.660;23.262;2023-07-30T03:18:58;93868.13;;;21.98;66.01
9462;BME280;4769;42.660;23.262;2023-07-30T03:21:26;93870.31;;;22.04;65.12
9462;BME280;4769;42.660;23.262;2023-07-30T03:23:52;93877.59;;;22.12;65.95
9462;BME280;4769;42.660;23.262;2023-07-30T03:26:17;93860.03;;;22.15;65.40
9462;BME280;4769;42.660;23.262;2023-07-30T03:28:43;93861.78;;;22.19;64.73
9462;BME280;4769;42.660;23.262;2023-07-30T03:31:09;93864.16;;;22.29;64.11
9462;BME280;4769;42.660;23.262;2023-07-30T03:33:34;93875.97;;;22.37;64.77
9462;BME280;4769;42.660;23.262;2023-07-30T03:36:00;93872.53;;;22.11;66.03
9462;BME280;4769;42.660;23.262;2023-07-30T03:38:28;93871.88;;;22.22;65.58
9462;BME280;4769;42.660;23.262;2023-07-30T03:40:54;93873.63;;;22.27;65.00
9462;BME280;4769;42.660;23.262;2023-07-30T03:43:20;93878.66;;;22.37;64.48
9462;BME280;4769;42.660;23.262;2023-07-30T03:45:45;93873.13;;;22.25;64.31
9462;BME280;4769;42.660;23.262;2023-07-30T03:48:11;93863.84;;;22.14;64.00
9462;BME280;4769;42.660;23.262;2023-07-30T03:50:37;93881.34;;;22.37;63.56
9462;BME280;4769;42.660;23.262;2023-07-30T03:53:02;93878.03;;;22.31;63.28
9462;BME280;4769;42.660;23.262;2023-07-30T03:55:31;93881.81;;;22.39;62.82
9462;BME280;4769;42.660;23.262;2023-07-30T03:57:57;93881.19;;;22.50;62.86
9462;BME280;4769;42.660;23.262;2023-07-30T04:00:22;93870.91;;;22.61;62.96
9462;BME280;4769;42.660;23.262;2023-07-30T04:02:48;93890.28;;;22.83;62.07
9462;BME280;4769;42.660;23.262;2023-07-30T04:05:14;93891.03;;;23.01;61.76
9462;BME280;4769;42.660;23.262;2023-07-30T04:07:39;93891.84;;;22.93;61.88
9462;BME280;4769;42.660;23.262;2023-07-30T04:10:06;93882.47;;;23.07;61.61
9462;BME280;4769;42.660;23.262;2023-07-30T04:12:34;93893.31;;;22.82;63.08
9462;BME280;4769;42.660;23.262;2023-07-30T04:15:00;93895.88;;;22.70;63.86
9462;BME280;4769;42.660;23.262;2023-07-30T04:17:26;93899.00;;;22.80;63.74
9462;BME280;4769;42.660;23.262;2023-07-30T04:20:00;93892.59;;;23.02;62.82
9462;BME280;4769;42.660;23.262;2023-07-30T04:22:26;93887.19;;;23.10;62.36
9462;BME280;4769;42.660;23.262;2023-07-30T04:24:52;93899.84;;;23.18;62.27
9462;BME280;4769;42.660;23.262;2023-07-30T04:27:19;93897.16;;;23.18;62.48
9462;BME280;4769;42.660;23.262;2023-07-30T04:29:48;93895.69;;;23.29;61.88
9462;BME280;4769;42.660;23.262;2023-07-30T04:32:14;93896.06;;;23.11;62.67
9462;BME280;4769;42.660;23.262;2023-07-30T04:34:43;93893.72;;;23.01;63.29
9462;BME280;4769;42.660;23.262;2023-07-30T04:37:08;93884.09;;;22.91;63.60
9462;BME280;4769;42.660;23.262;2023-07-30T04:39:34;93897.00;;;23.15;63.20
9462;BME280;4769;42.660;23.262;2023-07-30T04:42:00;93899.34;;;23.25;62.96
9462;BME280;4769;42.660;23.262;2023-07-30T04:44:26;93900.41;;;23.32;62.68
9462;BME280;4769;42.660;23.262;2023-07-30T04:46:58;93901.91;;;23.21;63.44
9462;BME280;4769;42.660;23.262;2023-07-30T04:49:23;93909.63;;;23.14;64.03
9462;BME280;4769;42.660;23.262;2023-07-30T04:51:49;93904.72;;;23.16;63.87
9462;BME280;4769;42.660;23.262;2023-07-30T04:54:15;93905.97;;;23.27;63.49
9462;BME280;4769;42.660;23.262;2023-07-30T04:56:41;93892.22;;;23.29;63.19
9462;BME280;4769;42.660;23.262;2023-07-30T04:59:07;93904.13;;;23.19;63.68
9462;BME280;4769;42.660;23.262;2023-07-30T05:01:32;93905.94;;;23.36;62.97
9462;BME280;4769;42.660;23.262;2023-07-30T05:04:01;93897.59;;;23.29;63.43
9462;BME280;4769;42.660;23.262;2023-07-30T05:06:27;93905.88;;;23.44;63.24
9462;BME280;4769;42.660;23.262;2023-07-30T05:08:52;93902.09;;;23.45;62.52
9462;BME280;4769;42.660;23.262;2023-07-30T05:11:18;93904.28;;;23.52;62.60
9462;BME280;4769;42.660;23.262;2023-07-30T05:13:44;93893.59;;;23.64;62.45
9462;BME280;4769;42.660;23.262;2023-07-30T05:16:09;93899.72;;;23.73;62.20
9462;BME280;4769;42.660;23.262;2023-07-30T05:18:35;93898.56;;;23.83;61.32
9462;BME280;4769;42.660;23.262;2023-07-30T05:21:03;93897.06;;;23.94;61.29
9462;BME280;4769;42.660;23.262;2023-07-30T05:23:29;93902.63;;;23.88;61.08
9462;BME280;4769;42.660;23.262;2023-07-30T05:25:55;93903.63;;;24.05;60.48
9462;BME280;4769;42.660;23.262;2023-07-30T05:28:20;93909.09;;;23.96;60.98
9462;BME280;4769;42.660;23.262;2023-07-30T05:30:46;93885.06;;;24.12;60.28
9462;BME280;4769;42.660;23.262;2023-07-30T05:33:12;93892.53;;;24.27;59.97
9462;BME280;4769;42.660;23.262;2023-07-30T05:35:40;93900.59;;;24.47;59.44
9462;BME280;4769;42.660;23.262;2023-07-30T05:38:09;93910.25;;;24.69;59.45
9462;BME280;4769;42.660;23.262;2023-07-30T05:40:35;93902.69;;;24.95;58.37
9462;BME280;4769;42.660;23.262;2023-07-30T05:43:01;93902.41;;;25.20;57.08
9462;BME280;4769;42.660;23.262;2023-07-30T05:45:26;93902.78;;;25.67;55.70
9462;BME280;4769;42.660;23.262;2023-07-30T05:47:52;93897.94;;;25.60;55.26
9462;BME280;4769;42.660;23.262;2023-07-30T05:50:18;93908.63;;;25.45;56.52
9462;BME280;4769;42.660;23.262;2023-07-30T05:52:44;93913.03;;;25.61;55.74
9462;BME280;4769;42.660;23.262;2023-07-30T05:55:12;93908.84;;;25.28;56.89
9462;BME280;4769;42.660;23.262;2023-07-30T05:57:38;93903.25;;;25.69;56.14
9462;BME280;4769;42.660;23.262;2023-07-30T06:00:05;93914.66;;;26.26;54.49
9462;BME280;4769;42.660;23.262;2023-07-30T06:02:31;93911.00;;;25.94;54.89
9462;BME280;4769;42.660;23.262;2023-07-30T06:04:56;93913.69;;;25.58;55.91
9462;BME280;4769;42.660;23.262;2023-07-30T06:07:22;93921.91;;;25.86;55.30
9462;BME280;4769;42.660;23.262;2023-07-30T06:09:48;93916.72;;;26.05;54.52
9462;BME280;4769;42.660;23.262;2023-07-30T06:12:16;93916.53;;;25.74;54.48
9462;BME280;4769;42.660;23.262;2023-07-30T06:14:42;93924.84;;;25.69;55.41
9462;BME280;4769;42.660;23.262;2023-07-30T06:17:08;93910.09;;;25.90;54.39
9462;BME280;4769;42.660;23.262;2023-07-30T06:19:34;93910.22;;;26.45;52.66
9462;BME280;4769;42.660;23.262;2023-07-30T06:22:00;93918.47;;;26.92;50.59
9462;BME280;4769;42.660;23.262;2023-07-30T06:24:25;93908.75;;;27.18;50.05
9462;BME280;4769;42.660;23.262;2023-07-30T06:26:51;93911.75;;;27.29;49.53
9462;BME280;4769;42.660;23.262;2023-07-30T06:29:19;93898.25;;;27.17;48.74
9462;BME280;4769;42.660;23.262;2023-07-30T06:31:45;93907.41;;;26.97;50.05
9462;BME280;4769;42.660;23.262;2023-07-30T06:34:11;93897.03;;;27.14;49.89
9462;BME280;4769;42.660;23.262;2023-07-30T06:36:36;93896.56;;;26.97;49.56
9462;BME280;4769;42.660;23.262;2023-07-30T06:39:02;93900.13;;;27.28;48.95
9462;BME280;4769;42.660;23.262;2023-07-30T06:41:28;93904.16;;;27.34;48.42
9462;BME280;4769;42.660;23.262;2023-07-30T06:43:54;93892.81;;;27.29;48.60
9462;BME280;4769;42.660;23.262;2023-07-30T06:46:22;93889.66;;;27.42;47.48
9462;BME280;4769;42.660;23.262;2023-07-30T06:48:48;93879.53;;;27.55;46.82
9462;BME280;4769;42.660;23.262;2023-07-30T06:51:13;93882.63;;;27.72;47.59
9462;BME280;4769;42.660;23.262;2023-07-30T06:53:39;93883.69;;;28.37;45.80
9462;BME280;4769;42.660;23.262;2023-07-30T06:56:05;93881.38;;;28.73;44.73
9462;BME280;4769;42.660;23.262;2023-07-30T06:58:31;93875.72;;;28.82;43.44
9462;BME280;4769;42.660;23.262;2023-07-30T07:00:57;93880.50;;;28.88;43.78
9462;BME280;4769;42.660;23.262;2023-07-30T07:03:26;93883.94;;;29.49;42.13
9462;BME280;4769;42.660;23.262;2023-07-30T07:05:55;93866.97;;;29.78;41.48
9462;BME280;4769;42.660;23.262;2023-07-30T07:08:21;93874.88;;;30.13;41.15
9462;BME280;4769;42.660;23.262;2023-07-30T07:10:47;93871.63;;;30.30;40.10
9462;BME280;4769;42.660;23.262;2023-07-30T07:13:13;93874.31;;;30.04;40.04
9462;BME280;4769;42.660;23.262;2023-07-30T07:15:39;93865.00;;;29.30;41.36
9462;BME280;4769;42.660;23.262;2023-07-30T07:18:04;93863.53;;;29.81;41.04
9462;BME280;4769;42.660;23.262;2023-07-30T07:20:33;93855.66;;;30.28;40.08
9462;BME280;4769;42.660;23.262;2023-07-30T07:22:59;93852.44;;;30.49;39.75
9462;BME280;4769;42.660;23.262;2023-07-30T07:25:24;93862.44;;;30.12;39.78
9462;BME280;4769;42.660;23.262;2023-07-30T07:27:50;93848.59;;;30.24;40.17
9462;BME280;4769;42.660;23.262;2023-07-30T07:30:16;93851.63;;;30.78;39.26
9462;BME280;4769;42.660;23.262;2023-07-30T07:32:42;93834.78;;;31.05;38.41
9462;BME280;4769;42.660;23.262;2023-07-30T07:35:08;93844.47;;;30.33;39.50
9462;BME280;4769;42.660;23.262;2023-07-30T07:37:36;93851.59;;;30.45;39.18
9462;BME280;4769;42.660;23.262;2023-07-30T07:40:02;93842.75;;;30.84;37.98
9462;BME280;4769;42.660;23.262;2023-07-30T07:42:29;93844.00;;;30.94;37.70
9462;BME280;4769;42.660;23.262;2023-07-30T07:44:54;93833.84;;;31.24;37.53
9462;BME280;4769;42.660;23.262;2023-07-30T07:47:20;93831.22;;;31.38;37.60
9462;BME280;4769;42.660;23.262;2023-07-30T07:49:47;93829.44;;;31.56;36.63
9462;BME280;4769;42.660;23.262;2023-07-30T07:52:13;93832.56;;;31.58;36.10
9462;BME280;4769;42.660;23.262;2023-07-30T07:54:41;93837.72;;;31.70;35.00
9462;BME280;4769;42.660;23.262;2023-07-30T07:57:07;93831.63;;;31.40;35.76
9462;BME280;4769;42.660;23.262;2023-07-30T07:59:33;93837.34;;;31.71;35.83
9462;BME280;4769;42.660;23.262;2023-07-30T08:01:59;93831.19;;;31.82;34.70
9462;BME280;4769;42.660;23.262;2023-07-30T08:04:24;93822.84;;;32.15;34.59
9462;BME280;4769;42.660;23.262;2023-07-30T08:06:50;93825.41;;;32.58;33.94
9462;BME280;4769;42.660;23.262;2023-07-30T08:09:16;93833.34;;;33.02;33.35
9462;BME280;4769;42.660;23.262;2023-07-30T08:11:46;93821.31;;;33.34;32.09
9462;BME280;4769;42.660;23.262;2023-07-30T08:14:12;93819.34;;;33.21;31.98
9462;BME280;4769;42.660;23.262;2023-07-30T08:16:38;93818.94;;;33.26;31.78
9462;BME280;4769;42.660;23.262;2023-07-30T08:19:03;93824.78;;;33.28;31.64
9462;BME280;4769;42.660;23.262;2023-07-30T08:21:29;93814.63;;;33.11;31.67
9462;BME280;4769;42.660;23.262;2023-07-30T08:23:55;93828.66;;;33.06;31.26
9462;BME280;4769;42.660;23.262;2023-07-30T08:26:20;93818.88;;;32.84;31.22
9462;BME280;4769;42.660;23.262;2023-07-30T08:28:48;93812.97;;;32.75;31.34
9462;BME280;4769;42.660;23.262;2023-07-30T08:31:14;93814.53;;;32.76;31.73
9462;BME280;4769;42.660;23.262;2023-07-30T08:33:40;93809.94;;;33.04;31.46
9462;BME280;4769;42.660;23.262;2023-07-30T08:36:05;93809.56;;;33.09;31.27
9462;BME280;4769;42.660;23.262;2023-07-30T08:38:31;93800.63;;;33.47;31.47
9462;BME280;4769;42.660;23.262;2023-07-30T08:40:57;93799.03;;;33.67;31.10
9462;BME280;4769;42.660;23.262;2023-07-30T08:43:23;93791.59;;;33.99;30.52
9462;BME280;4769;42.660;23.262;2023-07-30T08:45:51;93798.59;;;34.14;29.71
9462;BME280;4769;42.660;23.262;2023-07-30T08:48:18;93795.00;;;34.45;29.43
9462;BME280;4769;42.660;23.262;2023-07-30T08:50:45;93794.41;;;34.92;28.22
9462;BME280;4769;42.660;23.262;2023-07-30T08:53:11;93788.78;;;35.13;28.14
9462;BME280;4769;42.660;23.262;2023-07-30T08:55:38;93786.75;;;35.24;27.53
9462;BME280;4769;42.660;23.262;2023-07-30T08:58:05;93787.53;;;35.28;27.17
9462;BME280;4769;42.660;23.262;2023-07-30T09:00:35;93786.75;;;35.28;26.80
9462;BME280;4769;42.660;23.262;2023-07-30T09:03:04;93785.38;;;34.95;27.95
9462;BME280;4769;42.660;23.262;2023-07-30T09:05:31;93778.22;;;35.08;27.46
9462;BME280;4769;42.660;23.262;2023-07-30T09:07:57;93773.28;;;35.47;26.74
9462;BME280;4769;42.660;23.262;2023-07-30T09:10:23;93775.31;;;35.40;26.63
9462;BME280;4769;42.660;23.262;2023-07-30T09:12:52;93770.22;;;35.38;26.83
9462;BME280;4769;42.660;23.262;2023-07-30T09:15:18;93773.47;;;35.19;27.51
9462;BME280;4769;42.660;23.262;2023-07-30T09:17:45;93767.56;;;35.72;26.63
9462;BME280;4769;42.660;23.262;2023-07-30T09:20:14;93773.78;;;35.83;25.60
9462;BME280;4769;42.660;23.262;2023-07-30T09:22:39;93767.88;;;35.81;24.86
9462;BME280;4769;42.660;23.262;2023-07-30T09:25:06;93773.13;;;36.05;24.42
9462;BME280;4769;42.660;23.262;2023-07-30T09:27:33;93765.34;;;36.37;23.59
9462;BME280;4769;42.660;23.262;2023-07-30T09:30:00;93766.66;;;36.59;23.46
9462;BME280;4769;42.660;23.262;2023-07-30T09:32:27;93763.44;;;36.94;23.30
9462;BME280;4769;42.660;23.262;2023-07-30T09:34:53;93764.72;;;37.16;23.22
9462;BME280;4769;42.660;23.262;2023-07-30T09:37:21;93755.25;;;37.17;23.18
9462;BME280;4769;42.660;23.262;2023-07-30T09:39:48;93749.91;;;36.80;23.58
9462;BME280;4769;42.660;23.262;2023-07-30T09:42:14;93746.44;;;37.03;23.56
9462;BME280;4769;42.660;23.262;2023-07-30T09:44:40;93741.69;;;37.03;23.75
9462;BME280;4769;42.660;23.262;2023-07-30T09:47:09;93736.38;;;37.69;23.04
9462;BME280;4769;42.660;23.262;2023-07-30T09:49:35;93737.69;;;37.61;22.73
9462;BME280;4769;42.660;23.262;2023-07-30T09:52:02;93721.91;;;37.15;22.80
9462;BME280;4769;42.660;23.262;2023-07-30T09:54:31;93737.00;;;36.77;23.20
9462;BME280;4769;42.660;23.262;2023-07-30T09:56:57;93731.72;;;36.90;22.94
9462;BME280;4769;42.660;23.262;2023-07-30T09:59:23;93726.16;;;36.33;23.17
9462;BME280;4769;42.660;23.262;2023-07-30T10:01:49;93726.56;;;35.98;23.80
9462;BME280;4769;42.660;23.262;2023-07-30T10:04:18;93729.47;;;35.81;23.68
9462;BME280;4769;42.660;23.262;2023-07-30T10:06:48;93721.44;;;35.60;23.86
9462;BME280;4769;42.660;23.262;2023-07-30T10:09:16;93722.84;;;34.73;24.36
9462;BME280;4769;42.660;23.262;2023-07-30T10:11:46;93715.69;;;34.96;25.06
9462;BME280;4769;42.660;23.262;2023-07-30T10:14:14;93713.59;;;35.99;24.22
9462;BME280;4769;42.660;23.262;2023-07-30T10:16:50;93712.94;;;36.85;23.45
9462;BME280;4769;42.660;23.262;2023-07-30T10:19:16;93708.78;;;37.49;22.11
9462;BME280;4769;42.660;23.262;2023-07-30T10:21:42;93703.69;;;36.98;22.36
9462;BME280;4769;42.660;23.262;2023-07-30T10:24:08;93701.97;;;37.34;22.42
9462;BME280;4769;42.660;23.262;2023-07-30T10:26:35;93695.44;;;37.71;22.18
9462;BME280;4769;42.660;23.262;2023-07-30T10:29:13;93692.97;;;36.51;22.82
9462;BME280;4769;42.660;23.262;2023-07-30T10:31:39;93692.16;;;37.33;22.12
9462;BME280;4769;42.660;23.262;2023-07-30T10:34:07;93694.94;;;37.30;22.39
9462;BME280;4769;42.660;23.262;2023-07-30T10:36:34;93682.97;;;36.67;22.34
9462;BME280;4769;42.660;23.262;2023-07-30T10:39:11;93682.66;;;35.95;23.59
9462;BME280;4769;42.660;23.262;2023-07-30T10:41:37;93672.84;;;36.31;23.21
9462;BME280;4769;42.660;23.262;2023-07-30T10:44:03;93680.03;;;37.31;22.56
9462;BME280;4769;42.660;23.262;2023-07-30T10:46:31;93673.19;;;37.62;21.86
9462;BME280;4769;42.660;23.262;2023-07-30T10:48:57;93662.44;;;38.29;21.34
9462;BME280;4769;42.660;23.262;2023-07-30T10:51:23;93667.06;;;38.16;20.94
9462;BME280;4769;42.660;23.262;2023-07-30T10:53:49;93662.13;;;38.43;21.24
9462;BME280;4769;42.660;23.262;2023-07-30T10:56:17;93661.38;;;38.43;20.87
9462;BME280;4769;42.660;23.262;2023-07-30T10:58:43;93654.38;;;38.58;20.52
9462;BME280;4769;42.660;23.262;2023-07-30T11:01:14;93657.13;;;38.93;20.38
9462;BME280;4769;42.660;23.262;2023-07-30T11:03:42;93645.50;;;38.66;19.86
9462;BME280;4769;42.660;23.262;2023-07-30T11:06:08;93639.88;;;38.18;20.40
9462;BME280;4769;42.660;23.262;2023-07-30T11:08:34;93629.97;;;37.62;20.98
9462;BME280;4769;42.660;23.262;2023-07-30T11:11:01;93633.34;;;37.47;21.17
9462;BME280;4769;42.660;23.262;2023-07-30T11:13:26;93633.28;;;37.04;21.58
9462;BME280;4769;42.660;23.262;2023-07-30T11:15:52;93628.38;;;37.19;21.95
9462;BME280;4769;42.660;23.262;2023-07-30T11:18:18;93621.59;;;37.00;22.15
9462;BME280;4769;42.660;23.262;2023-07-30T11:20:48;93616.38;;;37.52;21.57
9462;BME280;4769;42.660;23.262;2023-07-30T11:23:18;93614.16;;;38.44;20.63
9462;BME280;4769;42.660;23.262;2023-07-30T11:25:46;93609.19;;;38.87;20.38
9462;BME280;4769;42.660;23.262;2023-07-30T11:28:12;93610.22;;;39.26;20.55
9462;BME280;4769;42.660;23.262;2023-07-30T11:30:54;93602.28;;;39.28;19.61
9462;BME280;4769;42.660;23.262;2023-07-30T11:33:19;93607.81;;;38.44;20.42
9462;BME280;4769;42.660;23.262;2023-07-30T11:35:48;93599.81;;;39.17;20.15
9462;BME280;4769;42.660;23.262;2023-07-30T11:38:14;93592.78;;;39.45;19.91
9462;BME280;4769;42.660;23.262;2023-07-30T11:40:40;93593.75;;;40.49;18.73
9462;BME280;4769;42.660;23.262;2023-07-30T11:43:06;93586.75;;;41.32;18.41
9462;BME280;4769;42.660;23.262;2023-07-30T11:45:32;93580.97;;;41.73;17.92
9462;BME280;4769;42.660;23.262;2023-07-30T11:48:06;93573.09;;;42.27;17.45
9462;BME280;4769;42.660;23.262;2023-07-30T11:50:51;93575.22;;;42.01;17.49
9462;BME280;4769;42.660;23.262;2023-07-30T11:53:19;93570.22;;;41.75;17.55
9462;BME280;4769;42.660;23.262;2023-07-30T11:55:45;93555.84;;;41.80;17.59
9462;BME280;4769;42.660;23.262;2023-07-30T12:01:22;93553.47;;;43.58;16.56
9462;BME280;4769;42.660;23.262;2023-07-30T12:13:15;93528.00;;;44.87;15.39
9462;BME280;4769;42.660;23.262;2023-07-30T12:15:50;93536.59;;;45.31;14.93
9462;BME280;4769;42.660;23.262;2023-07-30T12:21:00;93519.94;;;44.66;15.20
9462;BME280;4769;42.660;23.262;2023-07-30T12:23:31;93515.84;;;43.39;16.13
9462;BME280;4769;42.660;23.262;2023-07-30T12:25:57;93498.19;;;42.48;16.78
9462;BME280;4769;42.660;23.262;2023-07-30T12:28:26;93512.44;;;42.07;17.33
9462;BME280;4769;42.660;23.262;2023-07-30T12:31:00;93513.25;;;42.87;16.84
9462;BME280;4769;42.660;23.262;2023-07-30T12:33:26;93511.75;;;44.03;15.61
9462;BME280;4769;42.660;23.262;2023-07-30T12:35:57;93506.06;;;44.06;15.87
9462;BME280;4769;42.660;23.262;2023-07-30T12:38:23;93514.22;;;44.10;16.16
9462;BME280;4769;42.660;23.262;2023-07-30T12:40:49;93502.38;;;44.83;15.72
9462;BME280;4769;42.660;23.262;2023-07-30T12:43:16;93505.06;;;45.48;15.23
9462;BME280;4769;42.660;23.262;2023-07-30T12:45:44;93495.53;;;45.79;14.39
9462;BME280;4769;42.660;23.262;2023-07-30T12:48:10;93500.03;;;44.91;13.97
9462;BME280;4769;42.660;23.262;2023-07-30T12:50:36;93480.97;;;43.56;15.39
9462;BME280;4769;42.660;23.262;2023-07-30T12:53:01;93489.91;;;41.75;16.83
9462;BME280;4769;42.660;23.262;2023-07-30T12:55:27;93492.81;;;40.07;17.82
9462;BME280;4769;42.660;23.262;2023-07-30T12:57:53;93486.00;;;40.36;18.31
9462;BME280;4769;42.660;23.262;2023-07-30T13:00:18;93477.59;;;41.33;17.37
9462;BME280;4769;42.660;23.262;2023-07-30T13:02:47;93479.34;;;42.04;17.12
9462;BME280;4769;42.660;23.262;2023-07-30T13:05:12;93474.94;;;42.55;16.86
9462;BME280;4769;42.660;23.262;2023-07-30T13:07:46;93471.84;;;42.53;17.18
9462;BME280;4769;42.660;23.262;2023-07-30T13:10:12;93474.19;;;43.48;16.37
9462;BME280;4769;42.660;23.262;2023-07-30T13:12:38;93472.38;;;44.04;15.63
9462;BME280;4769;42.660;23.262;2023-07-30T13:15:04;93471.97;;;42.98;16.35
9462;BME280;4769;42.660;23.262;2023-07-30T13:17:30;93461.00;;;41.97;17.11
9462;BME280;4769;42.660;23.262;2023-07-30T13:19:58;93462.00;;;40.58;18.30
9462;BME280;4769;42.660;23.262;2023-07-30T13:22:24;93457.16;;;39.17;19.40